sensor_id;sensor_type;location;lat;lon;timestamp;temperature;humidity
29577;DHT22;16509;53.862;10.672;2024-03-07T00:02:20;4.70;99.90
29577;DHT22;16509;53.862;10.672;2024-03-07T00:04:45;4.70;99.90
29577;DHT22;16509;53.862;10.672;2024-03-07T00:07:11;4.70;99.90
29577;DHT22;16509;53.862;10.672;2024-03-07T00:09:37;4.70;99.90
29577;DHT22;16509;53.862;10.672;2024-03-07T00:12:04;4.70;99.90
29577;DHT22;16509;53.862;10.672;2024-03-07T00:14:31;4.70;99.90
29577;DHT22;16509;53.862;10.672;2024-03-07T00:16:57;4.70;99.90
29577;DHT22;16509;53.862;10.672;2024-03-07T00:19:24;4.70;99.90
29577;DHT22;16509;53.862;10.672;2024-03-07T00:21:56;4.70;99.90
29577;DHT22;16509;53.862;10.672;2024-03-07T00:24:22;4.70;99.90
29577;DHT22;16509;53.862;10.672;2024-03-07T00:26:53;4.70;99.90
29577;DHT22;16509;53.862;10.672;2024-03-07T00:29:18;4.60;99.90
29577;DHT22;16509;53.862;10.672;2024-03-07T00:31:45;4.70;99.90
29577;DHT22;16509;53.862;10.672;2024-03-07T00:34:12;4.60;99.90
29577;DHT22;16509;53.862;10.672;2024-03-07T00:36:40;4.60;99.90
29577;DHT22;16509;53.862;10.672;2024-03-07T00:39:05;4.70;99.90
29577;DHT22;16509;53.862;10.672;2024-03-07T00:41:33;4.70;99.90
29577;DHT22;16509;53.862;10.672;2024-03-07T00:43:59;4.60;99.90
29577;DHT22;16509;53.862;10.672;2024-03-07T00:46:24;4.60;99.90
29577;DHT22;16509;53.862;10.672;2024-03-07T00:48:50;4.60;99.90
29577;DHT22;16509;53.862;10.672;2024-03-07T00:51:15;4.60;99.90
29577;DHT22;16509;53.862;10.672;2024-03-07T00:53:41;4.60;99.90
29577;DHT22;16509;53.862;10.672;2024-03-07T00:56:06;4.60;99.90
29577;DHT22;16509;53.862;10.672;2024-03-07T00:58:32;4.60;99.90
29577;DHT22;16509;53.862;10.672;2024-03-07T01:00:57;4.60;99.90
29577;DHT22;16509;53.862;10.672;2024-03-07T01:03:23;4.50;99.90
29577;DHT22;16509;53.862;10.672;2024-03-07T01:05:49;4.50;99.90
29577;DHT22;16509;53.862;10.672;2024-03-07T01:08:15;4.50;99.90
29577;DHT22;16509;53.862;10.672;2024-03-07T01:10:40;4.50;99.90
29577;DHT22;16509;53.862;10.672;2024-03-07T01:13:06;4.40;99.90
29577;DHT22;16509;53.862;10.672;2024-03-07T01:15:34;4.40;99.90
29577;DHT22;16509;53.862;10.672;2024-03-07T01:18:00;4.40;99.90
29577;DHT22;16509;53.862;10.672;2024-03-07T01:20:25;4.40;99.90
29577;DHT22;16509;53.862;10.672;2024-03-07T01:22:54;4.40;99.90
29577;DHT22;16509;53.862;10.672;2024-03-07T01:25:19;4.30;99.90
29577;DHT22;16509;53.862;10.672;2024-03-07T01:27:46;4.30;99.90
29577;DHT22;16509;53.862;10.672;2024-03-07T01:30:12;4.40;99.90
29577;DHT22;16509;53.862;10.672;2024-03-07T01:32:38;4.30;99.90
29577;DHT22;16509;53.862;10.672;2024-03-07T01:35:04;4.40;99.90
29577;DHT22;16509;53.862;10.672;2024-03-07T01:37:32;4.30;99.90
29577;DHT22;16509;53.862;10.672;2024-03-07T01:39:58;4.30;99.90
29577;DHT22;16509;53.862;10.672;2024-03-07T01:42:23;4.30;99.90
29577;DHT22;16509;53.862;10.672;2024-03-07T01:44:50;4.30;99.90
29577;DHT22;16509;53.862;10.672;2024-03-07T01:47:17;4.30;99.90
29577;DHT22;16509;53.862;10.672;2024-03-07T01:49:43;4.20;99.90
29577;DHT22;16509;53.862;10.672;2024-03-07T01:52:09;4.20;99.90
29577;DHT22;16509;53.862;10.672;2024-03-07T01:54:36;4.20;99.90
29577;DHT22;16509;53.862;10.672;2024-03-07T01:57:02;4.20;99.90
29577;DHT22;16509;53.862;10.672;2024-03-07T01:59:29;4.20;99.90
29577;DHT22;16509;53.862;10.672;2024-03-07T02:01:56;4.20;99.90
29577;DHT22;16509;53.862;10.672;2024-03-07T02:04:22;4.20;99.90
29577;DHT22;16509;53.862;10.672;2024-03-07T02:06:49;4.10;99.90
29577;DHT22;16509;53.862;10.672;2024-03-07T02:09:15;4.10;99.90
29577;DHT22;16509;53.862;10.672;2024-03-07T02:11:40;4.10;99.90
29577;DHT22;16509;53.862;10.672;2024-03-07T02:14:06;4.10;99.90
29577;DHT22;16509;53.862;10.672;2024-03-07T02:16:32;4.20;99.90
29577;DHT22;16509;53.862;10.672;2024-03-07T02:18:57;4.10;99.90
29577;DHT22;16509;53.862;10.672;2024-03-07T02:21:25;4.10;99.90
29577;DHT22;16509;53.862;10.672;2024-03-07T02:23:50;4.10;99.90
29577;DHT22;16509;53.862;10.672;2024-03-07T02:26:16;4.10;99.90
29577;DHT22;16509;53.862;10.672;2024-03-07T02:28:42;4.10;99.90
29577;DHT22;16509;53.862;10.672;2024-03-07T02:31:07;4.00;99.90
29577;DHT22;16509;53.862;10.672;2024-03-07T02:33:33;4.00;99.90
29577;DHT22;16509;53.862;10.672;2024-03-07T02:35:58;4.00;99.90
29577;DHT22;16509;53.862;10.672;2024-03-07T02:38:24;4.00;99.90
29577;DHT22;16509;53.862;10.672;2024-03-07T02:40:49;3.90;99.90
29577;DHT22;16509;53.862;10.672;2024-03-07T02:43:15;3.90;99.90
29577;DHT22;16509;53.862;10.672;2024-03-07T02:45:41;3.90;99.90
29577;DHT22;16509;53.862;10.672;2024-03-07T02:48:07;3.80;99.90
29577;DHT22;16509;53.862;10.672;2024-03-07T02:50:35;3.80;99.90
29577;DHT22;16509;53.862;10.672;2024-03-07T02:53:03;3.70;99.90
29577;DHT22;16509;53.862;10.672;2024-03-07T02:55:29;3.70;99.90
29577;DHT22;16509;53.862;10.672;2024-03-07T02:57:54;3.60;99.90
29577;DHT22;16509;53.862;10.672;2024-03-07T03:00:21;3.60;99.90
29577;DHT22;16509;53.862;10.672;2024-03-07T03:02:52;3.50;99.90
29577;DHT22;16509;53.862;10.672;2024-03-07T03:05:19;3.60;99.90
29577;DHT22;16509;53.862;10.672;2024-03-07T03:07:45;3.50;99.90
29577;DHT22;16509;53.862;10.672;2024-03-07T03:10:20;3.50;99.90
29577;DHT22;16509;53.862;10.672;2024-03-07T03:12:46;3.50;99.90
29577;DHT22;16509;53.862;10.672;2024-03-07T03:15:12;3.50;99.90
29577;DHT22;16509;53.862;10.672;2024-03-07T03:17:38;3.40;99.90
29577;DHT22;16509;53.862;10.672;2024-03-07T03:20:03;3.40;99.90
29577;DHT22;16509;53.862;10.672;2024-03-07T03:22:47;3.40;99.90
29577;DHT22;16509;53.862;10.672;2024-03-07T03:25:14;3.40;99.90
29577;DHT22;16509;53.862;10.672;2024-03-07T03:27:40;3.30;99.90
29577;DHT22;16509;53.862;10.672;2024-03-07T03:30:06;3.30;99.90
29577;DHT22;16509;53.862;10.672;2024-03-07T03:32:32;3.20;99.90
29577;DHT22;16509;53.862;10.672;2024-03-07T03:34:58;3.20;99.90
29577;DHT22;16509;53.862;10.672;2024-03-07T03:37:23;3.20;99.90
29577;DHT22;16509;53.862;10.672;2024-03-07T03:39:49;3.00;99.90
29577;DHT22;16509;53.862;10.672;2024-03-07T03:42:15;3.00;99.90
29577;DHT22;16509;53.862;10.672;2024-03-07T03:44:40;3.00;99.90
29577;DHT22;16509;53.862;10.672;2024-03-07T03:47:06;2.90;99.90
29577;DHT22;16509;53.862;10.672;2024-03-07T03:49:31;2.90;99.90
29577;DHT22;16509;53.862;10.672;2024-03-07T03:51:57;2.80;99.90
29577;DHT22;16509;53.862;10.672;2024-03-07T03:54:25;2.80;99.90
29577;DHT22;16509;53.862;10.672;2024-03-07T03:56:50;2.80;99.90
29577;DHT22;16509;53.862;10.672;2024-03-07T03:59:16;2.80;99.90
29577;DHT22;16509;53.862;10.672;2024-03-07T04:01:41;2.80;99.90
29577;DHT22;16509;53.862;10.672;2024-03-07T04:04:07;2.80;99.90
29577;DHT22;16509;53.862;10.672;2024-03-07T04:06:32;2.90;99.90
29577;DHT22;16509;53.862;10.672;2024-03-07T04:08:59;2.80;99.90
29577;DHT22;16509;53.862;10.672;2024-03-07T04:11:24;2.90;99.90
29577;DHT22;16509;53.862;10.672;2024-03-07T04:13:50;2.90;99.90
29577;DHT22;16509;53.862;10.672;2024-03-07T04:16:15;2.90;99.90
29577;DHT22;16509;53.862;10.672;2024-03-07T04:18:42;3.00;99.90
29577;DHT22;16509;53.862;10.672;2024-03-07T04:21:07;3.00;99.90
29577;DHT22;16509;53.862;10.672;2024-03-07T04:23:34;2.90;99.90
29577;DHT22;16509;53.862;10.672;2024-03-07T04:26:00;2.90;99.90
29577;DHT22;16509;53.862;10.672;2024-03-07T04:28:25;2.90;99.90
29577;DHT22;16509;53.862;10.672;2024-03-07T04:30:51;2.90;99.90
29577;DHT22;16509;53.862;10.672;2024-03-07T04:33:18;2.90;99.90
29577;DHT22;16509;53.862;10.672;2024-03-07T04:35:44;2.90;99.90
29577;DHT22;16509;53.862;10.672;2024-03-07T04:38:10;2.90;99.90
29577;DHT22;16509;53.862;10.672;2024-03-07T04:40:41;2.90;99.90
29577;DHT22;16509;53.862;10.672;2024-03-07T04:43:06;3.00;99.90
29577;DHT22;16509;53.862;10.672;2024-03-07T04:45:33;3.00;99.90
29577;DHT22;16509;53.862;10.672;2024-03-07T04:47:59;3.00;99.90
29577;DHT22;16509;53.862;10.672;2024-03-07T04:50:25;3.00;99.90
29577;DHT22;16509;53.862;10.672;2024-03-07T04:52:51;3.00;99.90
29577;DHT22;16509;53.862;10.672;2024-03-07T04:55:17;3.00;99.90
29577;DHT22;16509;53.862;10.672;2024-03-07T04:57:43;3.00;99.90
29577;DHT22;16509;53.862;10.672;2024-03-07T05:00:10;2.90;99.90
29577;DHT22;16509;53.862;10.672;2024-03-07T05:02:43;2.90;99.90
29577;DHT22;16509;53.862;10.672;2024-03-07T05:05:09;2.80;99.90
29577;DHT22;16509;53.862;10.672;2024-03-07T05:07:35;2.80;99.90
29577;DHT22;16509;53.862;10.672;2024-03-07T05:10:04;2.70;99.90
29577;DHT22;16509;53.862;10.672;2024-03-07T05:12:31;2.70;99.90
29577;DHT22;16509;53.862;10.672;2024-03-07T05:14:56;2.80;99.90
29577;DHT22;16509;53.862;10.672;2024-03-07T05:17:22;2.80;99.90
29577;DHT22;16509;53.862;10.672;2024-03-07T05:19:48;2.80;99.90
29577;DHT22;16509;53.862;10.672;2024-03-07T05:22:15;2.80;99.90
29577;DHT22;16509;53.862;10.672;2024-03-07T05:24:44;2.80;99.90
29577;DHT22;16509;53.862;10.672;2024-03-07T05:27:10;2.80;99.90
29577;DHT22;16509;53.862;10.672;2024-03-07T05:29:38;2.80;99.90
29577;DHT22;16509;53.862;10.672;2024-03-07T05:32:20;2.80;99.90
29577;DHT22;16509;53.862;10.672;2024-03-07T05:34:47;2.70;99.90
29577;DHT22;16509;53.862;10.672;2024-03-07T05:37:13;2.70;99.90
29577;DHT22;16509;53.862;10.672;2024-03-07T05:39:38;2.80;99.90
29577;DHT22;16509;53.862;10.672;2024-03-07T05:42:04;2.90;99.90
29577;DHT22;16509;53.862;10.672;2024-03-07T05:44:30;2.80;99.90
29577;DHT22;16509;53.862;10.672;2024-03-07T05:46:55;2.80;99.90
29577;DHT22;16509;53.862;10.672;2024-03-07T05:49:21;2.80;99.90
29577;DHT22;16509;53.862;10.672;2024-03-07T05:51:46;2.80;99.90
29577;DHT22;16509;53.862;10.672;2024-03-07T05:54:12;2.80;99.90
29577;DHT22;16509;53.862;10.672;2024-03-07T05:56:39;2.80;99.90
29577;DHT22;16509;53.862;10.672;2024-03-07T05:59:05;2.80;99.90
29577;DHT22;16509;53.862;10.672;2024-03-07T06:01:35;2.70;99.90
29577;DHT22;16509;53.862;10.672;2024-03-07T06:04:02;2.80;99.90
29577;DHT22;16509;53.862;10.672;2024-03-07T06:06:28;2.80;99.90
29577;DHT22;16509;53.862;10.672;2024-03-07T06:08:57;2.80;99.90
29577;DHT22;16509;53.862;10.672;2024-03-07T06:11:23;2.90;99.90
29577;DHT22;16509;53.862;10.672;2024-03-07T06:13:48;3.00;99.90
29577;DHT22;16509;53.862;10.672;2024-03-07T06:16:14;3.00;99.90
29577;DHT22;16509;53.862;10.672;2024-03-07T06:18:41;3.00;99.90
29577;DHT22;16509;53.862;10.672;2024-03-07T06:21:06;3.00;99.90
29577;DHT22;16509;53.862;10.672;2024-03-07T06:23:33;3.10;99.90
29577;DHT22;16509;53.862;10.672;2024-03-07T06:25:59;3.00;99.90
29577;DHT22;16509;53.862;10.672;2024-03-07T06:28:26;3.00;99.90
29577;DHT22;16509;53.862;10.672;2024-03-07T06:30:54;3.00;99.90
29577;DHT22;16509;53.862;10.672;2024-03-07T06:33:20;3.00;99.90
29577;DHT22;16509;53.862;10.672;2024-03-07T06:35:47;3.10;99.90
29577;DHT22;16509;53.862;10.672;2024-03-07T06:38:13;3.00;99.90
29577;DHT22;16509;53.862;10.672;2024-03-07T06:40:40;3.00;99.90
29577;DHT22;16509;53.862;10.672;2024-03-07T06:43:06;3.00;99.90
29577;DHT22;16509;53.862;10.672;2024-03-07T06:45:35;3.00;99.90
29577;DHT22;16509;53.862;10.672;2024-03-07T06:48:03;3.00;99.90
29577;DHT22;16509;53.862;10.672;2024-03-07T06:50:29;3.10;99.90
29577;DHT22;16509;53.862;10.672;2024-03-07T06:52:54;3.10;99.90
29577;DHT22;16509;53.862;10.672;2024-03-07T06:55:20;3.10;99.90
29577;DHT22;16509;53.862;10.672;2024-03-07T06:57:46;3.10;99.90
29577;DHT22;16509;53.862;10.672;2024-03-07T07:00:12;3.10;99.90
29577;DHT22;16509;53.862;10.672;2024-03-07T07:02:40;3.10;99.90
29577;DHT22;16509;53.862;10.672;2024-03-07T07:05:07;3.10;99.90
29577;DHT22;16509;53.862;10.672;2024-03-07T07:07:45;3.10;99.90
29577;DHT22;16509;53.862;10.672;2024-03-07T07:10:12;3.20;99.90
29577;DHT22;16509;53.862;10.672;2024-03-07T07:12:42;3.20;99.90
29577;DHT22;16509;53.862;10.672;2024-03-07T07:15:09;3.20;99.90
29577;DHT22;16509;53.862;10.672;2024-03-07T07:17:35;3.20;99.90
29577;DHT22;16509;53.862;10.672;2024-03-07T07:20:01;3.20;99.90
29577;DHT22;16509;53.862;10.672;2024-03-07T07:22:26;3.10;99.90
29577;DHT22;16509;53.862;10.672;2024-03-07T07:24:52;3.10;99.90
29577;DHT22;16509;53.862;10.672;2024-03-07T07:27:18;3.10;99.90
29577;DHT22;16509;53.862;10.672;2024-03-07T07:29:44;3.10;99.90
29577;DHT22;16509;53.862;10.672;2024-03-07T07:32:10;3.20;99.90
29577;DHT22;16509;53.862;10.672;2024-03-07T07:34:38;3.10;99.90
29577;DHT22;16509;53.862;10.672;2024-03-07T07:37:04;3.10;99.90
29577;DHT22;16509;53.862;10.672;2024-03-07T07:39:30;3.20;99.90
29577;DHT22;16509;53.862;10.672;2024-03-07T07:41:57;3.20;99.90
29577;DHT22;16509;53.862;10.672;2024-03-07T07:44:22;3.20;99.90
29577;DHT22;16509;53.862;10.672;2024-03-07T07:46:48;3.20;99.90
29577;DHT22;16509;53.862;10.672;2024-03-07T07:49:14;3.20;99.90
29577;DHT22;16509;53.862;10.672;2024-03-07T07:51:41;3.20;99.90
29577;DHT22;16509;53.862;10.672;2024-03-07T07:54:07;3.30;99.90
29577;DHT22;16509;53.862;10.672;2024-03-07T07:56:34;3.30;99.90
29577;DHT22;16509;53.862;10.672;2024-03-07T07:59:01;3.30;99.90
29577;DHT22;16509;53.862;10.672;2024-03-07T08:01:26;3.30;99.90
29577;DHT22;16509;53.862;10.672;2024-03-07T08:03:52;3.40;99.90
29577;DHT22;16509;53.862;10.672;2024-03-07T08:06:18;3.30;99.90
29577;DHT22;16509;53.862;10.672;2024-03-07T08:08:44;3.20;99.90
29577;DHT22;16509;53.862;10.672;2024-03-07T08:11:10;3.20;99.90
29577;DHT22;16509;53.862;10.672;2024-03-07T08:13:37;3.10;99.90
29577;DHT22;16509;53.862;10.672;2024-03-07T08:16:03;3.20;99.90
29577;DHT22;16509;53.862;10.672;2024-03-07T08:18:28;3.20;99.90
29577;DHT22;16509;53.862;10.672;2024-03-07T08:20:55;3.30;99.90
29577;DHT22;16509;53.862;10.672;2024-03-07T08:23:20;3.30;99.90
29577;DHT22;16509;53.862;10.672;2024-03-07T08:25:48;3.40;99.90
29577;DHT22;16509;53.862;10.672;2024-03-07T08:28:15;3.40;99.90
29577;DHT22;16509;53.862;10.672;2024-03-07T08:30:40;3.40;99.90
29577;DHT22;16509;53.862;10.672;2024-03-07T08:33:06;3.30;99.90
29577;DHT22;16509;53.862;10.672;2024-03-07T08:35:33;3.40;99.90
29577;DHT22;16509;53.862;10.672;2024-03-07T08:37:59;3.50;99.90
29577;DHT22;16509;53.862;10.672;2024-03-07T08:40:26;3.60;99.90
29577;DHT22;16509;53.862;10.672;2024-03-07T08:42:53;3.60;99.90
29577;DHT22;16509;53.862;10.672;2024-03-07T08:45:20;3.70;99.90
29577;DHT22;16509;53.862;10.672;2024-03-07T08:47:47;3.70;99.90
29577;DHT22;16509;53.862;10.672;2024-03-07T08:50:13;3.70;99.90
29577;DHT22;16509;53.862;10.672;2024-03-07T08:52:40;3.70;99.90
29577;DHT22;16509;53.862;10.672;2024-03-07T08:55:07;3.70;99.90
29577;DHT22;16509;53.862;10.672;2024-03-07T08:57:36;3.80;99.90
29577;DHT22;16509;53.862;10.672;2024-03-07T09:00:06;3.80;99.90
29577;DHT22;16509;53.862;10.672;2024-03-07T09:02:37;3.90;99.90
29577;DHT22;16509;53.862;10.672;2024-03-07T09:05:04;3.90;99.90
29577;DHT22;16509;53.862;10.672;2024-03-07T09:07:31;4.00;99.90
29577;DHT22;16509;53.862;10.672;2024-03-07T09:09:57;4.10;99.90
29577;DHT22;16509;53.862;10.672;2024-03-07T09:12:23;4.20;99.90
29577;DHT22;16509;53.862;10.672;2024-03-07T09:14:53;4.20;99.90
29577;DHT22;16509;53.862;10.672;2024-03-07T09:17:22;4.30;99.90
29577;DHT22;16509;53.862;10.672;2024-03-07T09:19:48;4.40;99.90
29577;DHT22;16509;53.862;10.672;2024-03-07T09:22:14;4.40;99.90
29577;DHT22;16509;53.862;10.672;2024-03-07T09:24:40;4.30;99.90
29577;DHT22;16509;53.862;10.672;2024-03-07T09:27:08;4.30;99.90
29577;DHT22;16509;53.862;10.672;2024-03-07T09:29:33;4.50;99.90
29577;DHT22;16509;53.862;10.672;2024-03-07T09:31:59;4.50;99.90
29577;DHT22;16509;53.862;10.672;2024-03-07T09:34:25;4.70;99.90
29577;DHT22;16509;53.862;10.672;2024-03-07T09:36:51;4.50;99.90
29577;DHT22;16509;53.862;10.672;2024-03-07T09:39:18;4.60;99.90
29577;DHT22;16509;53.862;10.672;2024-03-07T09:41:44;4.60;99.90
29577;DHT22;16509;53.862;10.672;2024-03-07T09:44:14;4.60;99.90
29577;DHT22;16509;53.862;10.672;2024-03-07T09:46:46;4.70;99.90
29577;DHT22;16509;53.862;10.672;2024-03-07T09:49:12;4.80;99.90
29577;DHT22;16509;53.862;10.672;2024-03-07T09:51:39;4.80;99.90
29577;DHT22;16509;53.862;10.672;2024-03-07T09:54:05;4.80;99.90
29577;DHT22;16509;53.862;10.672;2024-03-07T09:56:31;4.90;99.90
29577;DHT22;16509;53.862;10.672;2024-03-07T09:59:11;4.90;99.90
29577;DHT22;16509;53.862;10.672;2024-03-07T10:01:41;5.10;99.90
29577;DHT22;16509;53.862;10.672;2024-03-07T10:04:13;5.20;99.90
29577;DHT22;16509;53.862;10.672;2024-03-07T10:06:40;5.20;99.90
29577;DHT22;16509;53.862;10.672;2024-03-07T10:09:10;5.30;99.90
29577;DHT22;16509;53.862;10.672;2024-03-07T10:11:39;5.30;99.90
29577;DHT22;16509;53.862;10.672;2024-03-07T10:14:04;5.30;99.90
29577;DHT22;16509;53.862;10.672;2024-03-07T10:16:30;5.30;99.90
29577;DHT22;16509;53.862;10.672;2024-03-07T10:18:57;5.30;99.90
29577;DHT22;16509;53.862;10.672;2024-03-07T10:21:23;5.50;99.90
29577;DHT22;16509;53.862;10.672;2024-03-07T10:23:49;5.50;99.90
29577;DHT22;16509;53.862;10.672;2024-03-07T10:26:17;5.50;99.90
29577;DHT22;16509;53.862;10.672;2024-03-07T10:28:43;5.50;99.90
29577;DHT22;16509;53.862;10.672;2024-03-07T10:31:08;5.60;99.90
29577;DHT22;16509;53.862;10.672;2024-03-07T10:33:37;5.50;99.90
29577;DHT22;16509;53.862;10.672;2024-03-07T10:36:03;5.70;99.90
29577;DHT22;16509;53.862;10.672;2024-03-07T10:38:28;5.80;99.90
29577;DHT22;16509;53.862;10.672;2024-03-07T10:40:55;5.80;99.90
29577;DHT22;16509;53.862;10.672;2024-03-07T10:43:22;5.80;99.90
29577;DHT22;16509;53.862;10.672;2024-03-07T10:45:49;5.80;99.90
29577;DHT22;16509;53.862;10.672;2024-03-07T10:48:18;5.80;99.90
29577;DHT22;16509;53.862;10.672;2024-03-07T10:51:02;5.90;99.90
29577;DHT22;16509;53.862;10.672;2024-03-07T10:56:43;6.10;99.90
29577;DHT22;16509;53.862;10.672;2024-03-07T10:59:17;6.20;99.90
29577;DHT22;16509;53.862;10.672;2024-03-07T11:01:49;6.30;99.90
29577;DHT22;16509;53.862;10.672;2024-03-07T11:04:16;6.30;99.90
29577;DHT22;16509;53.862;10.672;2024-03-07T11:06:43;6.30;99.90
29577;DHT22;16509;53.862;10.672;2024-03-07T11:09:10;6.50;99.90
29577;DHT22;16509;53.862;10.672;2024-03-07T11:11:38;6.60;99.90
29577;DHT22;16509;53.862;10.672;2024-03-07T11:14:06;6.60;99.90
29577;DHT22;16509;53.862;10.672;2024-03-07T11:16:33;6.60;99.90
29577;DHT22;16509;53.862;10.672;2024-03-07T11:19:31;6.50;99.90
29577;DHT22;16509;53.862;10.672;2024-03-07T11:21:58;6.70;99.90
29577;DHT22;16509;53.862;10.672;2024-03-07T11:24:28;6.80;99.90
29577;DHT22;16509;53.862;10.672;2024-03-07T11:26:57;6.80;99.90
29577;DHT22;16509;53.862;10.672;2024-03-07T11:30:07;6.90;99.90
29577;DHT22;16509;53.862;10.672;2024-03-07T11:32:38;7.00;99.90
29577;DHT22;16509;53.862;10.672;2024-03-07T11:35:04;7.20;99.90
29577;DHT22;16509;53.862;10.672;2024-03-07T11:42:49;7.40;99.90
29577;DHT22;16509;53.862;10.672;2024-03-07T11:45:16;7.30;99.90
29577;DHT22;16509;53.862;10.672;2024-03-07T11:47:55;7.30;99.90
29577;DHT22;16509;53.862;10.672;2024-03-07T11:50:38;7.20;99.90
29577;DHT22;16509;53.862;10.672;2024-03-07T11:53:05;7.30;99.90
29577;DHT22;16509;53.862;10.672;2024-03-07T11:55:35;7.30;99.90
29577;DHT22;16509;53.862;10.672;2024-03-07T12:00:42;7.40;99.90
29577;DHT22;16509;53.862;10.672;2024-03-07T12:03:11;7.40;99.90
29577;DHT22;16509;53.862;10.672;2024-03-07T12:05:39;7.50;99.90
29577;DHT22;16509;53.862;10.672;2024-03-07T12:08:06;7.60;99.90
29577;DHT22;16509;53.862;10.672;2024-03-07T12:10:31;7.90;99.90
29577;DHT22;16509;53.862;10.672;2024-03-07T12:12:59;8.20;99.90
29577;DHT22;16509;53.862;10.672;2024-03-07T12:15:26;8.20;99.90
29577;DHT22;16509;53.862;10.672;2024-03-07T12:17:53;8.20;99.90
29577;DHT22;16509;53.862;10.672;2024-03-07T12:20:19;8.30;99.90
29577;DHT22;16509;53.862;10.672;2024-03-07T12:23:00;8.20;99.90
29577;DHT22;16509;53.862;10.672;2024-03-07T12:25:29;8.20;99.90
29577;DHT22;16509;53.862;10.672;2024-03-07T12:28:08;8.50;99.90
29577;DHT22;16509;53.862;10.672;2024-03-07T12:33:12;8.20;99.90
29577;DHT22;16509;53.862;10.672;2024-03-07T12:35:46;8.60;99.90
29577;DHT22;16509;53.862;10.672;2024-03-07T12:38:13;9.00;99.90
29577;DHT22;16509;53.862;10.672;2024-03-07T12:40:44;8.80;99.90
29577;DHT22;16509;53.862;10.672;2024-03-07T12:43:18;8.50;99.90
29577;DHT22;16509;53.862;10.672;2024-03-07T12:45:53;8.30;99.90
29577;DHT22;16509;53.862;10.672;2024-03-07T12:48:23;8.20;99.90
29577;DHT22;16509;53.862;10.672;2024-03-07T12:50:49;8.40;99.90
29577;DHT22;16509;53.862;10.672;2024-03-07T12:53:22;8.50;99.90
29577;DHT22;16509;53.862;10.672;2024-03-07T12:55:48;8.50;99.90
29577;DHT22;16509;53.862;10.672;2024-03-07T12:58:14;8.50;99.90
29577;DHT22;16509;53.862;10.672;2024-03-07T13:00:41;8.30;99.90
29577;DHT22;16509;53.862;10.672;2024-03-07T13:03:07;8.00;99.90
29577;DHT22;16509;53.862;10.672;2024-03-07T13:05:34;7.90;99.90
29577;DHT22;16509;53.862;10.672;2024-03-07T13:07:59;7.80;99.90
29577;DHT22;16509;53.862;10.672;2024-03-07T13:10:25;7.80;99.90
29577;DHT22;16509;53.862;10.672;2024-03-07T13:12:50;7.90;99.90
29577;DHT22;16509;53.862;10.672;2024-03-07T13:15:17;8.20;99.90
29577;DHT22;16509;53.862;10.672;2024-03-07T13:17:43;8.40;99.90
29577;DHT22;16509;53.862;10.672;2024-03-07T13:20:12;8.50;99.90
29577;DHT22;16509;53.862;10.672;2024-03-07T13:22:42;8.50;99.90
29577;DHT22;16509;53.862;10.672;2024-03-07T13:25:12;8.40;99.90
29577;DHT22;16509;53.862;10.672;2024-03-07T13:27:52;8.40;99.90
29577;DHT22;16509;53.862;10.672;2024-03-07T13:30:21;8.20;99.90
29577;DHT22;16509;53.862;10.672;2024-03-07T13:32:59;8.10;99.90
29577;DHT22;16509;53.862;10.672;2024-03-07T13:35:25;8.20;99.90
29577;DHT22;16509;53.862;10.672;2024-03-07T13:37:52;8.10;99.90
29577;DHT22;16509;53.862;10.672;2024-03-07T13:40:25;8.00;99.90
29577;DHT22;16509;53.862;10.672;2024-03-07T13:42:57;7.90;99.90
29577;DHT22;16509;53.862;10.672;2024-03-07T13:45:24;7.70;99.90
29577;DHT22;16509;53.862;10.672;2024-03-07T13:47:55;7.60;99.90
29577;DHT22;16509;53.862;10.672;2024-03-07T13:50:23;7.50;99.90
29577;DHT22;16509;53.862;10.672;2024-03-07T13:52:52;7.40;99.90
29577;DHT22;16509;53.862;10.672;2024-03-07T13:55:55;7.40;99.90
29577;DHT22;16509;53.862;10.672;2024-03-07T14:01:20;7.40;99.90
29577;DHT22;16509;53.862;10.672;2024-03-07T14:04:22;7.40;99.90
29577;DHT22;16509;53.862;10.672;2024-03-07T14:24:23;7.30;99.90
29577;DHT22;16509;53.862;10.672;2024-03-07T14:27:21;7.30;99.90
29577;DHT22;16509;53.862;10.672;2024-03-07T14:29:54;7.30;99.90
29577;DHT22;16509;53.862;10.672;2024-03-07T14:32:22;7.30;99.90
29577;DHT22;16509;53.862;10.672;2024-03-07T14:35:08;7.20;99.90
29577;DHT22;16509;53.862;10.672;2024-03-07T14:40:26;7.10;99.90
29577;DHT22;16509;53.862;10.672;2024-03-07T14:42:54;7.10;99.90
29577;DHT22;16509;53.862;10.672;2024-03-07T14:45:36;7.10;99.90
29577;DHT22;16509;53.862;10.672;2024-03-07T14:48:02;7.20;99.90
29577;DHT22;16509;53.862;10.672;2024-03-07T14:50:30;7.10;99.90
29577;DHT22;16509;53.862;10.672;2024-03-07T14:52:58;7.10;99.90
29577;DHT22;16509;53.862;10.672;2024-03-07T14:55:24;7.10;99.90
29577;DHT22;16509;53.862;10.672;2024-03-07T14:57:50;7.10;99.90
29577;DHT22;16509;53.862;10.672;2024-03-07T15:00:15;7.10;99.90
29577;DHT22;16509;53.862;10.672;2024-03-07T15:02:49;7.10;99.90
29577;DHT22;16509;53.862;10.672;2024-03-07T15:05:17;7.00;99.90
29577;DHT22;16509;53.862;10.672;2024-03-07T15:07:45;7.10;99.90
29577;DHT22;16509;53.862;10.672;2024-03-07T15:10:17;7.00;99.90
29577;DHT22;16509;53.862;10.672;2024-03-07T15:12:47;7.00;99.90
29577;DHT22;16509;53.862;10.672;2024-03-07T15:15:15;7.00;99.90
29577;DHT22;16509;53.862;10.672;2024-03-07T15:17:42;6.90;99.90
29577;DHT22;16509;53.862;10.672;2024-03-07T15:20:09;6.90;99.90
29577;DHT22;16509;53.862;10.672;2024-03-07T15:22:41;7.00;99.90
29577;DHT22;16509;53.862;10.672;2024-03-07T15:25:12;6.80;99.90
29577;DHT22;16509;53.862;10.672;2024-03-07T15:27:39;6.80;99.90
29577;DHT22;16509;53.862;10.672;2024-03-07T15:30:06;6.80;99.90
29577;DHT22;16509;53.862;10.672;2024-03-07T15:32:36;6.80;99.90
29577;DHT22;16509;53.862;10.672;2024-03-07T15:35:02;6.70;99.90
29577;DHT22;16509;53.862;10.672;2024-03-07T15:37:29;6.70;99.90
29577;DHT22;16509;53.862;10.672;2024-03-07T15:39:54;6.70;99.90
29577;DHT22;16509;53.862;10.672;2024-03-07T15:42:20;6.60;99.90
29577;DHT22;16509;53.862;10.672;2024-03-07T15:44:45;6.60;99.90
29577;DHT22;16509;53.862;10.672;2024-03-07T15:47:11;6.60;99.90
29577;DHT22;16509;53.862;10.672;2024-03-07T15:49:38;6.50;99.90
29577;DHT22;16509;53.862;10.672;2024-03-07T15:52:05;6.40;99.90
29577;DHT22;16509;53.862;10.672;2024-03-07T15:54:31;6.40;99.90
29577;DHT22;16509;53.862;10.672;2024-03-07T15:56:56;6.40;99.90
29577;DHT22;16509;53.862;10.672;2024-03-07T15:59:22;6.30;99.90
29577;DHT22;16509;53.862;10.672;2024-03-07T16:01:48;6.30;99.90
29577;DHT22;16509;53.862;10.672;2024-03-07T16:04:14;6.30;99.90
29577;DHT22;16509;53.862;10.672;2024-03-07T16:06:44;6.20;99.90
29577;DHT22;16509;53.862;10.672;2024-03-07T16:09:10;6.20;99.90
29577;DHT22;16509;53.862;10.672;2024-03-07T16:11:38;6.10;99.90